createdAt,value
2023-04-24T00:04:02.906Z,13.37
2023-04-24T00:14:24.462Z,13.32
2023-04-24T00:24:45.809Z,13.18
2023-04-24T00:35:07.468Z,12.98
2023-04-24T00:45:29.012Z,12.71
2023-04-24T00:55:52.344Z,12.53
2023-04-24T01:06:14.388Z,12.43
2023-04-24T01:16:36.765Z,12.43
2023-04-24T01:26:58.251Z,12.47
2023-04-24T01:37:19.658Z,12.42
2023-04-24T01:47:41.245Z,12.40
2023-04-24T01:58:03.231Z,12.43
2023-04-24T02:08:24.952Z,12.38
2023-04-24T02:18:46.357Z,12.40
2023-04-24T02:29:07.755Z,12.37
2023-04-24T02:39:29.115Z,12.28
2023-04-24T02:49:50.490Z,12.29
2023-04-24T03:00:12.626Z,12.14
2023-04-24T03:10:33.995Z,12.12
2023-04-24T03:20:55.353Z,12.11
2023-04-24T03:31:17.656Z,12.08
2023-04-24T03:41:39.104Z,12.08
2023-04-24T03:52:00.469Z,12.10
2023-04-24T04:02:21.955Z,12.12
2023-04-24T04:12:43.463Z,12.03
2023-04-24T04:23:04.886Z,11.98
2023-04-24T04:33:26.915Z,11.90
2023-04-24T04:43:48.688Z,11.84
2023-04-24T04:54:10.050Z,11.75
2023-04-24T05:04:31.585Z,11.67
2023-04-24T05:14:53.169Z,11.68
2023-04-24T05:25:14.610Z,11.69
2023-04-24T05:35:36.011Z,11.70
2023-04-24T05:45:57.441Z,11.72
2023-04-24T05:56:19.453Z,11.81
2023-04-24T06:06:41.329Z,11.90
2023-04-24T06:17:02.902Z,11.88
2023-04-24T06:27:24.284Z,11.90
2023-04-24T06:37:45.633Z,11.93
2023-04-24T06:48:07.174Z,11.99
2023-04-24T06:58:28.727Z,12.09
2023-04-24T07:08:50.275Z,12.23
2023-04-24T07:19:11.792Z,12.24
2023-04-24T07:29:33.162Z,12.08
2023-04-24T07:39:55.982Z,12.17
2023-04-24T07:50:17.554Z,12.28
2023-04-24T08:00:39.064Z,12.25
2023-04-24T08:11:00.418Z,12.29
2023-04-24T08:21:22.440Z,12.36
2023-04-24T08:31:43.952Z,12.56
2023-04-24T08:42:08.868Z,12.72
2023-04-24T08:52:30.888Z,12.66
2023-04-24T09:02:53.452Z,12.49
2023-04-24T09:13:15.561Z,12.46
2023-04-24T09:23:36.966Z,12.35
2023-04-24T09:34:01.716Z,12.13
2023-04-24T09:44:24.227Z,11.92
2023-04-24T09:54:53.432Z,11.86
2023-04-24T10:05:16.250Z,11.72
2023-04-24T10:15:38.239Z,11.70
2023-04-24T10:26:01.275Z,11.69
2023-04-24T10:36:24.590Z,11.68
2023-04-24T10:46:48.503Z,11.61
2023-04-24T10:57:19.452Z,11.41
2023-04-24T11:08:06.225Z,11.40
2023-04-24T11:18:37.655Z,11.34
2023-04-24T11:29:08.883Z,11.18
2023-04-24T11:39:37.123Z,11.22
2023-04-24T11:49:59.406Z,11.21
2023-04-24T12:00:22.531Z,11.21
2023-04-24T12:10:44.075Z,10.86
2023-04-24T12:21:23.183Z,10.54
2023-04-24T12:31:44.837Z,10.27
2023-04-24T12:42:06.354Z,10.08
2023-04-24T12:52:28.941Z,9.97
2023-04-24T13:02:50.633Z,9.90
2023-04-24T13:13:12.241Z,9.91
2023-04-24T13:23:33.622Z,9.89
2023-04-24T13:33:55.071Z,9.87
2023-04-24T13:44:17.336Z,9.90
2023-04-24T13:54:38.899Z,10.00
2023-04-24T14:05:00.471Z,10.06
2023-04-24T14:15:22.129Z,10.08
2023-04-24T14:25:43.517Z,10.06
2023-04-24T14:36:06.571Z,9.92
2023-04-24T14:46:28.028Z,9.81
2023-04-24T14:56:49.797Z,9.90
2023-04-24T15:07:11.185Z,9.98
2023-04-24T15:17:33.021Z,9.99
2023-04-24T15:27:54.460Z,9.94
2023-04-24T15:38:15.856Z,9.95
2023-04-24T15:48:39.276Z,9.99
2023-04-24T15:59:00.879Z,10.05
2023-04-24T16:09:22.278Z,10.01
2023-04-24T16:19:43.636Z,9.94
2023-04-24T16:30:05.670Z,9.89
2023-04-24T16:40:27.114Z,9.94
2023-04-24T16:50:48.475Z,9.95
2023-04-24T17:01:10.127Z,9.95
2023-04-24T17:11:31.562Z,9.97
2023-04-24T17:21:53.088Z,9.96
2023-04-24T17:32:14.501Z,9.94
2023-04-24T17:42:38.365Z,9.96
2023-04-24T17:52:59.813Z,9.87
2023-04-24T18:03:21.357Z,9.76
2023-04-24T18:13:42.928Z,9.59
2023-04-24T18:24:04.461Z,9.53
2023-04-24T18:34:26.146Z,9.47
2023-04-24T18:44:47.537Z,9.48
2023-04-24T18:55:09.796Z,9.42
2023-04-24T19:05:31.228Z,9.38
2023-04-24T19:15:52.574Z,9.38
2023-04-24T19:26:14.469Z,9.41
2023-04-24T19:36:36.429Z,9.41
2023-04-24T19:46:57.859Z,9.39
2023-04-24T19:57:19.245Z,9.29
2023-04-24T20:07:40.650Z,9.16
2023-04-24T20:18:02.050Z,9.11
2023-04-24T20:28:24.291Z,9.10
2023-04-24T20:38:47.087Z,9.06
2023-04-24T20:49:08.694Z,8.99
2023-04-24T20:59:30.266Z,8.92
2023-04-24T21:09:51.657Z,8.91
2023-04-24T21:20:13.078Z,8.90
2023-04-24T21:30:34.437Z,8.89
2023-04-24T21:40:55.836Z,8.90
2023-04-24T21:51:18.018Z,8.92
2023-04-24T22:01:39.503Z,8.94
2023-04-24T22:12:01.634Z,8.94
2023-04-24T22:22:23.032Z,8.94
2023-04-24T22:32:44.471Z,8.98
2023-04-24T22:43:06.347Z,9.00
2023-04-24T22:53:28.858Z,8.98
2023-04-24T23:03:51.489Z,8.84
2023-04-24T23:14:13.194Z,8.74
2023-04-24T23:24:34.539Z,8.70
2023-04-24T23:34:56.452Z,8.68
2023-04-24T23:45:17.857Z,8.63
2023-04-24T23:55:39.230Z,8.57
